Time;durP1;ratioP1;P1;durP2;ratioP2;P2;SDS_P1;SDS_P2;PMS_P1;PMS_P2;Temp;Humidity;BMP_temperature;BMP_pressure;BME280_temperature;BME280_humidity;BME280_pressure;Samples;Min_cycle;Max_cycle;Signal;HPM_P1;HPM_P2
2022/01/16 00:01:34;;;;;;;4.28;1.45;;;;;;;0.85;76.41;100150.37;1731606;82;21109;-72
2022/01/16 00:06:31;;;;;;;5.30;1.62;;;;;;;0.85;74.96;100158.15;1704069;84;21019;-70
2022/01/16 00:08:58;;;;;;;4.97;1.00;;;;;;;0.84;74.17;100158.59;1703908;84;21222;-72
2022/01/16 00:11:25;;;;;;;3.92;1.50;;;;;;;0.83;73.65;100154.72;1703956;84;21924;-73
2022/01/16 00:13:53;;;;;;;2.40;1.32;;;;;;;0.83;73.31;100163.34;1684175;84;21053;-72
2022/01/16 00:16:20;;;;;;;5.72;1.50;;;;;;;0.81;73.84;100162.48;1704329;84;21089;-71
2022/01/16 00:18:52;;;;;;;5.03;1.65;;;;;;;0.80;73.58;100166.34;1703793;84;21045;-72
2022/01/16 00:21:21;;;;;;;4.10;1.40;;;;;;;0.80;73.73;100162.45;1703724;84;21069;-72
2022/01/16 00:23:47;;;;;;;7.60;1.80;;;;;;;0.78;73.28;100155.11;1704031;83;22241;-71
2022/01/16 00:26:14;;;;;;;2.92;1.27;;;;;;;0.78;73.36;100162.88;1703867;84;21497;-72
2022/01/16 00:28:41;;;;;;;2.67;1.35;;;;;;;0.76;73.15;100171.08;1703995;84;21109;-70
2022/01/16 00:31:07;;;;;;;5.10;1.60;;;;;;;0.75;74.49;100177.14;1704241;84;21058;-72
2022/01/16 00:33:39;;;;;;;4.12;1.92;;;;;;;0.77;74.88;100171.09;1704080;84;21082;-71
2022/01/16 00:36:03;;;;;;;6.12;1.52;;;;;;;0.77;74.59;100155.54;1703518;84;21122;-71
2022/01/16 00:38:30;;;;;;;3.83;1.20;;;;;;;0.77;74.04;100146.47;1703992;84;21526;-71
2022/01/16 00:40:57;;;;;;;4.20;1.32;;;;;;;0.79;73.92;100150.38;1703882;84;21593;-71
2022/01/16 00:43:23;;;;;;;3.87;1.40;;;;;;;0.77;74.30;100152.95;1703938;84;21058;-70
2022/01/16 00:45:50;;;;;;;3.10;1.30;;;;;;;0.79;74.35;100168.52;1704125;84;21065;-70
2022/01/16 00:48:16;;;;;;;3.17;1.47;;;;;;;0.79;73.94;100182.34;1704019;84;21134;-70
2022/01/16 00:50:43;;;;;;;6.00;1.32;;;;;;;0.80;73.07;100176.72;1703869;84;21093;-72
2022/01/16 00:53:09;;;;;;;4.80;1.72;;;;;;;0.79;73.29;100175.00;1714676;82;21030;-70
2022/01/16 00:55:38;;;;;;;4.95;1.80;;;;;;;0.79;73.83;100178.89;1733459;82;21125;-73
2022/01/16 00:58:05;;;;;;;4.17;1.30;;;;;;;0.78;74.63;100173.25;1740948;81;21113;-73
2022/01/16 01:00:33;;;;;;;3.02;1.30;;;;;;;0.79;74.66;100150.38;1741327;82;21941;-73
2022/01/16 01:03:01;;;;;;;3.98;1.30;;;;;;;0.78;73.67;100141.73;1741035;82;21073;-71
2022/01/16 01:05:29;;;;;;;3.00;1.22;;;;;;;0.78;73.60;100156.40;1741574;82;21065;-70
2022/01/16 01:07:56;;;;;;;4.58;1.77;;;;;;;0.77;73.30;100159.88;1731340;82;21077;-71
2022/01/16 01:10:29;;;;;;;3.35;1.32;;;;;;;0.77;72.98;100172.83;1714725;82;21644;-71
2022/01/16 01:12:56;;;;;;;4.83;1.35;;;;;;;0.76;72.86;100168.48;1711019;83;21518;-71
2022/01/16 01:15:26;;;;;;;6.53;1.22;;;;;;;0.76;72.96;100169.78;1712051;83;21124;-71
2022/01/16 01:17:53;;;;;;;4.83;1.15;;;;;;;0.74;72.44;100198.75;1712230;83;21093;-71
2022/01/16 01:20:21;;;;;;;3.20;1.20;;;;;;;0.74;73.00;100198.31;1726468;82;21467;-71
2022/01/16 01:22:50;;;;;;;4.05;1.20;;;;;;;0.74;72.44;100166.34;1741487;82;21598;-70
2022/01/16 01:25:17;;;;;;;2.52;1.20;;;;;;;0.73;73.19;100164.59;1741611;82;21150;-71
2022/01/16 01:27:45;;;;;;;5.47;1.22;;;;;;;0.73;72.84;100208.23;1741796;82;21073;-71
2022/01/16 01:30:14;;;;;;;2.15;1.10;;;;;;;0.73;72.24;100211.27;1741410;82;21069;-70
2022/01/16 01:32:44;;;;;;;;;;;;;;;0.74;72.16;100214.31;1744179;82;21069;-72
2022/01/16 01:35:12;;;;;;;3.25;1.30;;;;;;;0.73;72.92;100222.48;1741648;81;20213;-71
2022/01/16 01:37:40;;;;;;;3.87;1.30;;;;;;;0.72;72.69;100205.66;1738191;82;21189;-71
2022/01/16 01:40:13;;;;;;;3.70;1.10;;;;;;;0.72;73.39;100240.21;1739948;82;21102;-72
2022/01/16 01:43:01;;;;;;;5.37;1.47;;;;;;;0.73;73.42;100241.07;1740208;82;21125;-71
2022/01/16 01:51:04;;;;;;;3.45;1.20;;;;;;;0.72;73.86;100109.74;1676137;85;21073;-71
2022/01/16 01:53:30;;;;;;;4.50;1.32;;;;;;;0.70;73.74;100075.17;1676201;85;21074;-69
2022/01/16 01:55:57;;;;;;;5.45;1.40;;;;;;;0.66;73.57;100068.25;1676160;85;21105;-68
2022/01/16 01:58:25;;;;;;;4.08;1.40;;;;;;;0.65;73.50;100104.97;1668905;85;21126;-69
2022/01/16 02:00:51;;;;;;;3.62;1.52;;;;;;;0.62;73.81;100100.65;1669059;85;21065;-68
2022/01/16 02:03:42;;;;;;;4.40;1.40;;;;;;;0.62;73.81;100142.12;1693119;84;21135;-69
2022/01/16 02:05:59;;;;;;;4.47;1.30;;;;;;;0.62;74.31;100158.96;1691370;84;26724;-69
2022/01/16 02:08:26;;;;;;;4.55;1.50;;;;;;;0.62;73.80;100161.55;1693377;84;21125;-69
2022/01/16 02:10:53;;;;;;;2.72;1.22;;;;;;;0.62;73.52;100152.48;1693622;84;21691;-69
2022/01/16 02:13:27;;;;;;;5.95;1.42;;;;;;;0.63;73.80;100169.75;1693601;84;21053;-69
2022/01/16 02:27:59;;;;;;;4.67;1.52;;;;;;;0.63;73.41;100191.78;1693088;84;21170;-69
2022/01/16 02:32:02;;;;;;;2.35;1.20;;;;;;;0.62;70.91;100182.28;1693479;84;21066;-69
2022/01/16 02:34:39;;;;;;;3.58;1.42;;;;;;;0.63;72.58;100178.83;1693091;84;21617;-69
2022/01/16 02:37:09;;;;;;;4.50;1.52;;;;;;;0.67;71.64;100178.83;1693555;84;21080;-71
2022/01/16 02:39:40;;;;;;;3.75;1.55;;;;;;;0.65;70.97;100200.88;1693676;84;21647;-69
2022/01/16 02:42:09;;;;;;;4.65;1.12;;;;;;;0.66;71.84;100198.70;1694013;84;21092;-70
2022/01/16 02:44:47;;;;;;;2.00;1.02;;;;;;;0.68;70.78;100206.49;1693856;84;21069;-70
2022/01/16 02:47:05;;;;;;;3.00;1.40;;;;;;;0.67;71.36;100206.04;1690961;84;21720;-71
2022/01/16 02:49:34;;;;;;;2.50;1.20;;;;;;;0.68;73.10;100222.91;1693357;84;21085;-70
2022/01/16 02:52:07;;;;;;;3.42;1.20;;;;;;;0.72;71.50;100234.17;1693920;84;21085;-70
2022/01/16 02:54:38;;;;;;;2.62;1.10;;;;;;;0.71;71.72;100223.34;1693592;84;21888;-69
2022/01/16 02:57:08;;;;;;;4.00;1.20;;;;;;;0.70;71.08;100219.89;1690074;83;21561;-71
2022/01/16 02:59:35;;;;;;;2.47;1.10;;;;;;;0.69;71.39;100219.87;1665554;86;21562;-70
2022/01/16 03:02:05;;;;;;;6.30;1.55;;;;;;;0.68;71.75;100220.75;1665500;86;21068;-68
2022/01/16 03:04:32;;;;;;;2.45;0.98;;;;;;;0.70;72.52;100222.92;1665612;86;21049;-69
2022/01/16 03:07:03;;;;;;;5.87;1.57;;;;;;;0.68;72.28;100227.23;1665424;86;21078;-70
2022/01/16 03:09:51;;;;;;;4.28;1.52;;;;;;;0.65;72.13;100225.49;1665400;86;21750;-71
2022/01/16 03:12:01;;;;;;;4.65;1.37;;;;;;;0.64;72.70;100234.11;1665489;84;22053;-63
2022/01/16 03:14:29;;;;;;;2.90;1.20;;;;;;;0.62;72.66;100239.31;1673235;84;21122;-67
2022/01/16 03:16:55;;;;;;;4.25;1.37;;;;;;;0.58;73.34;100237.55;1677095;84;21114;-64
2022/01/16 03:22:06;;;;;;;4.33;1.05;;;;;;;0.58;73.90;100249.65;1665502;86;21089;-66
2022/01/16 03:24:40;;;;;;;4.42;1.32;;;;;;;0.56;73.60;100254.81;1665413;86;21141;-65
2022/01/16 03:27:16;;;;;;;4.37;1.22;;;;;;;0.56;73.71;100254.81;1665543;86;21178;-66
2022/01/16 03:29:49;;;;;;;4.30;1.40;;;;;;;0.57;73.09;100256.53;1665468;86;21117;-66
2022/01/16 03:32:18;;;;;;;5.62;1.30;;;;;;;0.57;72.77;100259.12;1671966;84;21836;-65
2022/01/16 03:34:45;;;;;;;3.10;1.20;;;;;;;0.57;73.17;100260.86;1693396;84;21568;-66
2022/01/16 03:37:11;;;;;;;4.33;1.40;;;;;;;0.58;73.65;100258.28;1693514;84;21034;-67
2022/01/16 03:39:39;;;;;;;4.37;1.45;;;;;;;0.59;73.58;100256.12;1693534;84;21164;-64
2022/01/16 03:42:07;;;;;;;4.70;1.30;;;;;;;0.57;72.71;100261.72;1693713;84;21064;-66
2022/01/16 03:44:34;;;;;;;3.52;1.45;;;;;;;0.57;73.41;100272.08;1693620;84;21126;-65
2022/01/16 03:47:01;;;;;;;5.35;1.32;;;;;;;0.56;74.28;100262.59;1693429;84;21077;-64
2022/01/16 03:49:31;;;;;;;4.83;1.72;;;;;;;0.55;73.25;100270.34;1693484;84;21659;-64
2022/01/16 03:52:00;;;;;;;5.80;1.50;;;;;;;0.52;73.56;100268.61;1693383;84;21128;-66
2022/01/16 03:54:30;;;;;;;3.65;1.30;;;;;;;0.51;73.03;100272.50;1693596;84;21652;-65
2022/01/16 03:56:58;;;;;;;4.55;1.30;;;;;;;0.50;74.08;100272.05;1694667;83;21200;-66
2022/01/16 03:59:24;;;;;;;4.25;1.20;;;;;;;0.48;73.32;100265.55;1714213;83;21078;-65
2022/01/16 04:01:51;;;;;;;4.05;1.62;;;;;;;0.48;72.92;100265.98;1714354;83;21106;-64
2022/01/16 04:04:17;;;;;;;3.58;1.50;;;;;;;0.42;73.71;100256.46;1714236;83;21071;-66
2022/01/16 04:06:45;;;;;;;6.85;1.50;;;;;;;0.49;72.73;100270.33;1719038;83;21033;-66
2022/01/16 04:09:12;;;;;;;1.90;1.02;;;;;;;0.48;71.34;100255.62;1690242;84;21176;-66
2022/01/16 04:11:45;;;;;;;1.95;0.98;;;;;;;0.49;72.54;100267.30;1684851;85;21075;-68
2022/01/16 04:14:10;;;;;;;3.62;1.65;;;;;;;0.50;73.06;100265.13;1700035;84;21292;-65
2022/01/16 04:16:36;;;;;;;3.52;1.52;;;;;;;0.49;70.68;100260.82;1719067;83;21027;-63
2022/01/16 04:19:04;;;;;;;5.87;1.25;;;;;;;0.50;70.46;100267.72;1690257;84;21605;-66
2022/01/16 04:21:32;;;;;;;2.12;1.27;;;;;;;0.50;71.27;100264.27;1657687;85;21055;-66
2022/01/16 04:23:59;;;;;;;4.85;1.42;;;;;;;0.50;71.58;100272.05;1672278;85;21643;-64
2022/01/16 04:26:26;;;;;;;2.92;1.40;;;;;;;0.48;70.88;100270.73;1672978;85;21084;-66
2022/01/16 04:28:54;;;;;;;3.98;1.15;;;;;;;0.49;71.28;100271.19;1672465;85;21525;-64
2022/01/16 04:31:20;;;;;;;5.17;1.40;;;;;;;0.48;70.81;100270.73;1687800;84;21103;-65
2022/01/16 04:33:47;;;;;;;3.67;1.25;;;;;;;0.48;71.26;100272.03;1688987;84;21574;-63
2022/01/16 04:36:14;;;;;;;2.52;1.10;;;;;;;0.48;70.93;100277.20;1689437;84;21064;-65
2022/01/16 04:38:45;;;;;;;3.60;1.20;;;;;;;0.47;71.69;100275.49;1689275;84;21671;-67
2022/01/16 04:43:53;;;;;;;3.20;1.17;;;;;;;0.44;72.26;100278.07;1681181;84;21557;-66
2022/01/16 04:46:30;;;;;;;2.92;1.07;;;;;;;0.43;70.98;100280.20;1683173;84;21162;-65
2022/01/16 04:48:57;;;;;;;2.58;0.93;;;;;;;0.41;71.34;100281.52;1668754;84;21127;-73
2022/01/16 04:51:24;;;;;;;3.85;1.20;;;;;;;0.44;70.80;100287.55;1709360;83;21134;-74
2022/01/16 04:53:51;;;;;;;3.98;1.20;;;;;;;0.41;70.92;100278.03;1715117;83;21619;-67
2022/01/16 04:56:17;;;;;;;4.30;1.50;;;;;;;0.43;71.22;100288.42;1690813;84;21087;-67
2022/01/16 04:58:45;;;;;;;3.75;1.30;;;;;;;0.43;71.17;100288.42;1677169;84;22084;-68
2022/01/16 05:01:11;;;;;;;5.00;1.35;;;;;;;0.42;71.04;100290.14;1665320;86;21273;-67
2022/01/16 05:03:39;;;;;;;4.00;1.57;;;;;;;0.40;71.82;100292.72;1665847;84;21676;-68
2022/01/16 05:06:05;;;;;;;7.40;1.40;;;;;;;0.40;71.83;100294.45;1665586;86;21648;-72
2022/01/16 05:08:32;;;;;;;4.95;1.30;;;;;;;0.41;72.10;100303.94;1653416;85;21108;-66
2022/01/16 05:12:38;;;;;;;3.10;1.20;;;;;;;0.44;71.98;100309.56;1806231;79;22870;-67
2022/01/16 05:17:50;;;;;;;3.25;1.30;;;;;;;0.38;72.65;100304.79;1769986;80;21148;-66
2022/01/16 05:20:17;;;;;;;5.03;1.47;;;;;;;0.37;73.04;100304.80;1732247;82;20984;-66
2022/01/16 05:22:43;;;;;;;4.87;1.55;;;;;;;0.37;73.02;100316.46;1742569;82;21013;-65
2022/01/16 05:25:13;;;;;;;5.20;1.65;;;;;;;0.35;73.92;100314.28;1741079;82;21537;-67
2022/01/16 05:27:39;;;;;;;6.00;1.98;;;;;;;0.33;74.32;100308.22;1736641;82;21018;-65
2022/01/16 05:30:07;;;;;;;5.20;1.45;;;;;;;0.34;73.29;100315.12;1733786;80;21896;-66
2022/01/16 05:32:34;;;;;;;4.05;1.35;;;;;;;0.31;73.07;100317.70;1742345;81;21858;-65
2022/01/16 05:35:01;;;;;;;5.42;1.42;;;;;;;0.30;72.98;100318.53;1747864;82;21068;-64
2022/01/16 05:37:28;;;;;;;5.12;1.80;;;;;;;0.27;73.13;100312.05;1748044;82;21081;-66
2022/01/16 05:39:55;;;;;;;4.85;1.87;;;;;;;0.27;73.39;100310.75;1732415;81;21555;-69
2022/01/16 05:42:22;;;;;;;5.05;1.87;;;;;;;0.25;73.40;100315.05;1736783;81;21128;-65
2022/01/16 05:44:50;;;;;;;6.62;1.70;;;;;;;0.25;73.46;100322.38;1728275;82;21532;-64
2022/01/16 05:47:16;;;;;;;4.33;1.57;;;;;;;0.24;73.58;100324.98;1741953;82;21048;-65
2022/01/16 05:49:43;;;;;;;7.25;1.98;;;;;;;0.22;73.70;100324.09;1720408;82;21073;-66
2022/01/16 05:52:10;;;;;;;4.03;1.80;;;;;;;0.23;73.66;100318.94;1679776;83;21113;-65
2022/01/16 05:54:40;;;;;;;5.53;1.65;;;;;;;0.23;73.77;100316.35;1727142;82;21143;-65
2022/01/16 05:57:07;;;;;;;4.87;1.72;;;;;;;0.22;73.71;100316.33;1730826;82;21096;-68
2022/01/16 05:59:34;;;;;;;13.80;4.42;;;;;;;0.22;73.62;100327.98;1733627;82;21081;-65
2022/01/16 06:02:00;;;;;;;18.32;4.97;;;;;;;0.20;73.74;100339.18;1730235;82;21544;-65
2022/01/16 06:04:28;;;;;;;6.00;2.65;;;;;;;0.20;73.74;100336.59;1708869;83;21644;-66
2022/01/16 06:06:55;;;;;;;21.10;6.62;;;;;;;0.20;74.02;100326.23;1708525;83;21038;-65
2022/01/16 06:09:21;;;;;;;28.20;10.15;;;;;;;0.22;74.51;100337.91;1719109;82;21037;-66
2022/01/16 06:11:48;;;;;;;10.13;2.47;;;;;;;0.24;75.16;100336.64;1703781;83;21014;-67
2022/01/16 06:14:14;;;;;;;6.87;2.20;;;;;;;0.28;75.80;100338.41;1722244;82;22201;-65
2022/01/16 06:16:41;;;;;;;7.80;4.00;;;;;;;0.28;75.55;100343.59;1736661;82;21562;-66
2022/01/16 06:19:07;;;;;;;6.97;2.90;;;;;;;0.29;75.00;100350.05;1738086;82;21515;-67
2022/01/16 06:21:34;;;;;;;16.85;5.03;;;;;;;0.29;74.47;100350.48;1732599;82;21033;-66
2022/01/16 06:24:00;;;;;;;6.20;2.22;;;;;;;0.31;75.53;100352.67;1732563;82;21057;-66
2022/01/16 06:26:26;;;;;;;12.00;4.60;;;;;;;0.34;75.63;100359.16;1737260;82;21075;-65
2022/01/16 06:28:53;;;;;;;7.55;2.65;;;;;;;0.36;75.20;100364.79;1741819;82;21097;-67
2022/01/16 06:31:19;;;;;;;8.13;2.37;;;;;;;0.37;74.65;100360.50;1741450;81;21821;-67
2022/01/16 06:33:46;;;;;;;7.08;3.08;;;;;;;0.37;74.47;100361.80;1728710;81;21922;-65
2022/01/16 06:36:12;;;;;;;4.33;2.30;;;;;;;0.39;75.13;100357.06;1704763;82;21085;-65
2022/01/16 06:38:39;;;;;;;9.08;2.33;;;;;;;0.40;75.40;100360.52;1724666;80;21143;-67
2022/01/16 06:41:09;;;;;;;9.55;2.67;;;;;;;0.39;74.68;100356.17;1721621;82;21140;-65
2022/01/16 06:43:35;;;;;;;9.28;2.70;;;;;;;0.42;74.68;100369.17;1716578;82;21129;-66
2022/01/16 06:46:02;;;;;;;48.20;16.67;;;;;;;0.42;74.12;100365.28;1715495;82;21092;-67
2022/01/16 06:48:30;;;;;;;10.95;3.70;;;;;;;0.40;73.34;100367.00;1725931;82;21054;-63
2022/01/16 06:50:56;;;;;;;62.85;22.20;;;;;;;0.46;73.98;100367.45;1719333;82;21081;-65
2022/01/16 06:53:23;;;;;;;22.90;7.83;;;;;;;0.39;72.82;100367.83;1720177;82;21128;-64
2022/01/16 06:55:49;;;;;;;24.23;9.03;;;;;;;0.42;72.31;100378.24;1718791;80;21132;-64
2022/01/16 06:58:15;;;;;;;45.67;17.13;;;;;;;0.47;72.35;100379.14;1718160;82;21069;-65
2022/01/16 07:00:43;;;;;;;31.87;11.25;;;;;;;0.47;73.00;100376.55;1718378;82;21100;-65
2022/01/16 07:03:09;;;;;;;88.87;29.52;;;;;;;0.47;73.22;100380.44;1722614;82;22149;-64
2022/01/16 07:05:36;;;;;;;84.77;30.12;;;;;;;0.47;73.56;100376.55;1728379;82;21687;-64
2022/01/16 07:08:04;;;;;;;26.68;9.40;;;;;;;0.48;74.73;100380.86;1747469;82;21131;-66
2022/01/16 07:10:31;;;;;;;18.20;4.70;;;;;;;0.51;73.30;100379.61;1732856;82;21113;-65
2022/01/16 07:12:58;;;;;;;23.50;7.15;;;;;;;0.51;71.16;100382.64;1741300;82;21061;-65
2022/01/16 07:15:25;;;;;;;13.95;4.50;;;;;;;0.51;71.48;100384.80;1727288;82;21528;-66
2022/01/16 07:17:52;;;;;;;17.30;5.35;;;;;;;0.50;71.45;100388.22;1711330;83;21065;-65
2022/01/16 07:20:18;;;;;;;17.98;4.87;;;;;;;0.50;71.43;100393.41;1681352;84;22152;-65
2022/01/16 07:22:45;;;;;;;17.27;5.25;;;;;;;0.51;71.36;100394.30;1679574;84;21172;-63
2022/01/16 07:25:13;;;;;;;16.15;4.67;;;;;;;0.51;71.29;100391.27;1733717;82;21077;-65
2022/01/16 07:27:40;;;;;;;19.35;5.80;;;;;;;0.51;72.23;100395.16;1715701;82;21321;-66
2022/01/16 07:30:08;;;;;;;17.00;6.93;;;;;;;0.53;72.94;100399.93;1720196;82;21057;-64
2022/01/16 07:32:35;;;;;;;12.25;3.98;;;;;;;0.55;72.48;100405.11;1732225;82;21137;-65
2022/01/16 07:35:04;;;;;;;15.88;5.05;;;;;;;0.55;71.91;100412.48;1729924;82;21070;-65
2022/01/16 07:37:31;;;;;;;15.80;6.08;;;;;;;0.55;71.37;100411.58;1729235;82;21046;-66
2022/01/16 07:39:57;;;;;;;26.10;8.83;;;;;;;0.46;71.73;100393.37;1719943;82;21434;-65
2022/01/16 07:42:24;;;;;;;157.10;56.80;;;;;;;0.55;71.58;100412.48;1707336;82;21155;-66
2022/01/16 07:44:52;;;;;;;40.98;15.45;;;;;;;0.57;71.92;100419.81;1705255;83;21018;-65
2022/01/16 07:47:18;;;;;;;51.80;18.32;;;;;;;0.60;71.92;100409.92;1705951;83;21053;-64
2022/01/16 07:49:45;;;;;;;186.85;64.92;;;;;;;0.63;72.00;100408.64;1705324;83;21084;-64
2022/01/16 07:52:11;;;;;;;17.07;6.10;;;;;;;0.66;71.63;100400.88;1706048;83;21125;-63
2022/01/16 07:54:39;;;;;;;44.25;16.97;;;;;;;0.68;72.12;100398.31;1678096;83;21551;-65
2022/01/16 07:57:06;;;;;;;40.55;13.85;;;;;;;0.70;71.55;100400.48;1695477;83;21633;-64
2022/01/16 07:59:32;;;;;;;18.60;6.92;;;;;;;0.71;71.79;100393.99;1699880;83;21652;-63
2022/01/16 08:01:58;;;;;;;17.20;4.40;;;;;;;0.72;71.02;100402.23;1681521;83;21943;-66
2022/01/16 08:04:26;;;;;;;17.77;4.72;;;;;;;0.75;70.76;100400.08;1649285;85;21115;-65
2022/01/16 08:06:53;;;;;;;14.18;5.65;;;;;;;0.75;71.13;100405.27;1715963;82;21649;-64
2022/01/16 08:09:19;;;;;;;7.20;3.10;;;;;;;0.75;70.15;100407.86;1717095;81;21208;-67
2022/01/16 08:11:47;;;;;;;10.32;2.87;;;;;;;0.76;69.31;100412.17;1728429;81;21092;-68
2022/01/16 08:14:13;;;;;;;7.12;2.77;;;;;;;0.77;68.16;100416.52;1721868;82;21026;-65
2022/01/16 08:16:40;;;;;;;13.43;4.72;;;;;;;0.78;67.35;100414.35;1738272;82;21128;-65
2022/01/16 08:19:06;;;;;;;10.93;2.95;;;;;;;0.81;67.34;100416.55;1724216;81;21109;-64
2022/01/16 08:21:34;;;;;;;9.73;3.05;;;;;;;0.82;66.72;100417.42;1720900;82;21640;-65
2022/01/16 08:24:03;;;;;;;10.85;3.67;;;;;;;0.82;65.17;100416.13;1728803;82;21132;-64
2022/01/16 08:26:32;;;;;;;7.30;2.58;;;;;;;0.84;65.19;100410.52;1738852;82;21063;-65
2022/01/16 08:28:58;;;;;;;20.35;7.42;;;;;;;0.83;64.83;100413.98;1733614;82;21064;-64
2022/01/16 08:31:25;;;;;;;57.73;19.75;;;;;;;0.84;64.62;100411.81;1729783;82;21182;-63
2022/01/16 08:33:52;;;;;;;13.00;2.58;;;;;;;0.85;65.12;100412.24;1721014;81;21151;-65
2022/01/16 08:36:18;;;;;;;5.42;2.50;;;;;;;0.88;63.39;100415.31;1733813;82;20991;-64
2022/01/16 08:38:44;;;;;;;7.72;3.37;;;;;;;0.88;63.39;100415.31;1738221;81;21085;-65
2022/01/16 08:41:11;;;;;;;7.10;3.08;;;;;;;0.89;62.68;100430.86;1723137;81;21092;-65
2022/01/16 08:43:37;;;;;;;6.90;1.90;;;;;;;0.90;62.87;100431.31;1727430;81;21564;-66
2022/01/16 08:46:04;;;;;;;6.05;1.87;;;;;;;0.93;62.66;100431.33;1726417;82;22182;-64
2022/01/16 08:48:31;;;;;;;5.28;1.80;;;;;;;0.90;62.60;100431.31;1735683;81;21088;-64
2022/01/16 08:51:00;;;;;;;4.50;2.12;;;;;;;0.89;62.47;100426.97;1735338;81;21283;-64
2022/01/16 08:53:28;;;;;;;5.35;1.90;;;;;;;0.86;62.41;100430.85;1717095;81;21065;-63
2022/01/16 08:55:55;;;;;;;7.22;2.72;;;;;;;0.86;62.51;100432.14;1728724;82;21065;-63
2022/01/16 08:58:21;;;;;;;8.58;3.22;;;;;;;0.85;61.22;100418.72;1707138;82;21130;-65
2022/01/16 09:00:50;;;;;;;5.90;2.30;;;;;;;0.86;61.24;100417.89;1719419;82;21131;-65
2022/01/16 09:03:20;;;;;;;5.22;2.00;;;;;;;0.88;61.58;100414.88;1728591;81;21038;-65
2022/01/16 09:05:48;;;;;;;9.50;2.20;;;;;;;0.92;61.55;100406.27;1727499;81;24014;-63
2022/01/16 09:08:14;;;;;;;9.98;3.47;;;;;;;0.93;61.15;100396.32;1737754;82;21489;-64
2022/01/16 09:10:41;;;;;;;5.15;2.02;;;;;;;0.94;61.14;100394.16;1723270;81;21740;-65
2022/01/16 09:13:11;;;;;;;6.97;2.22;;;;;;;0.94;60.53;100393.29;1721912;82;21109;-65
2022/01/16 09:15:39;;;;;;;4.33;1.50;;;;;;;0.91;60.75;100395.44;1732443;82;21078;-64
2022/01/16 09:18:06;;;;;;;5.40;1.98;;;;;;;0.91;60.93;100389.39;1724122;82;21100;-64
2022/01/16 09:20:33;;;;;;;15.98;5.55;;;;;;;0.92;60.99;100384.62;1718033;82;21222;-65
2022/01/16 09:23:00;;;;;;;6.33;1.85;;;;;;;0.93;61.54;100385.95;1735749;81;21139;-63
2022/01/16 09:25:26;;;;;;;7.42;2.90;;;;;;;0.96;61.29;100383.36;1735262;81;21002;-63
2022/01/16 09:27:53;;;;;;;6.20;2.22;;;;;;;0.97;61.56;100384.25;1738059;82;21034;-65
2022/01/16 09:30:20;;;;;;;7.25;2.50;;;;;;;0.97;61.59;100385.12;1736177;81;21034;-64
2022/01/16 09:32:48;;;;;;;5.87;2.00;;;;;;;0.97;61.63;100392.89;1735029;81;21058;-65
2022/01/16 09:35:15;;;;;;;10.43;3.40;;;;;;;1.00;61.96;100378.64;1735175;82;22197;-64
2022/01/16 09:37:42;;;;;;;6.25;2.55;;;;;;;1.01;61.31;100375.20;1728045;81;21058;-66
2022/01/16 09:40:12;;;;;;;3.98;2.08;;;;;;;1.03;61.41;100373.89;1735658;82;21093;-64
2022/01/16 09:42:39;;;;;;;9.55;3.27;;;;;;;1.03;61.88;100366.11;1739207;81;21169;-66
2022/01/16 09:45:10;;;;;;;11.45;2.75;;;;;;;1.05;62.14;100363.97;1698944;82;21050;-66
2022/01/16 09:47:37;;;;;;;;;;;;;;;1.05;61.84;100361.38;1739757;81;21122;-66
2022/01/16 09:50:05;;;;;;;6.70;2.47;;;;;;;1.03;61.57;100363.09;1738576;81;20197;-65
2022/01/16 09:52:39;;;;;;;5.28;1.70;;;;;;;1.01;60.96;100356.16;1735964;82;21072;-67
2022/01/16 09:55:06;;;;;;;6.30;2.08;;;;;;;1.02;60.88;100361.36;1725944;82;21058;-65
2022/01/16 09:57:32;;;;;;;6.83;1.90;;;;;;;1.05;61.02;100362.66;1723005;82;21203;-65
2022/01/16 10:00:00;;;;;;;8.08;2.35;;;;;;;1.04;61.24;100359.65;1708697;82;21244;-65
2022/01/16 10:02:26;;;;;;;10.03;2.70;;;;;;;1.03;61.66;100363.09;1707407;82;21073;-64
2022/01/16 10:04:53;;;;;;;3.67;1.57;;;;;;;1.00;61.76;100355.30;1718939;82;21596;-64
2022/01/16 10:07:20;;;;;;;25.48;7.45;;;;;;;0.96;61.37;100353.54;1718033;82;21073;-65
2022/01/16 10:10:12;;;;;;;13.93;6.10;;;;;;;0.95;61.92;100354.41;1708197;83;21089;-64
2022/01/16 10:12:46;;;;;;;9.93;3.72;;;;;;;0.93;63.19;100345.75;1683536;83;21173;-65
2022/01/16 10:15:25;;;;;;;15.03;5.65;;;;;;;0.97;63.85;100351.41;1701508;82;21148;-64
2022/01/16 10:17:57;;;;;;;20.35;6.35;;;;;;;0.99;62.55;100353.58;1731519;81;21055;-65
2022/01/16 10:20:25;;;;;;;3.35;1.80;;;;;;;0.98;60.34;100356.15;1702581;82;21026;-64
2022/01/16 10:22:56;;;;;;;19.00;6.75;;;;;;;1.01;60.56;100338.89;1697139;82;21089;-64
2022/01/16 10:25:41;;;;;;;7.70;2.90;;;;;;;1.03;60.98;100344.06;1718362;81;21144;-64
2022/01/16 10:28:16;;;;;;;136.57;50.08;;;;;;;1.09;65.27;100351.03;1687789;82;21069;-64
2022/01/16 10:30:46;;;;;;;88.67;31.55;;;;;;;1.09;65.27;100351.03;1734202;81;21072;-64
2022/01/16 10:33:17;;;;;;;90.50;29.40;;;;;;;1.15;64.09;100352.34;1711217;82;21084;-65
2022/01/16 10:35:47;;;;;;;61.20;20.23;;;;;;;1.24;65.22;100353.68;1704146;82;21351;-65
2022/01/16 10:38:21;;;;;;;19.40;7.60;;;;;;;1.22;61.37;100344.61;1705406;83;21158;-64
2022/01/16 10:40:50;;;;;;;9.80;3.83;;;;;;;1.28;61.56;100343.76;1695438;83;21066;-64
2022/01/16 10:43:40;;;;;;;18.52;7.37;;;;;;;1.34;63.36;100345.09;1702300;83;21595;-63
2022/01/16 10:46:07;;;;;;;16.50;6.65;;;;;;;1.35;61.40;100348.11;1700449;83;21115;-65
2022/01/16 10:48:35;;;;;;;28.67;9.60;;;;;;;1.36;60.26;100351.59;1698589;83;21640;-64
2022/01/16 10:51:03;;;;;;;54.88;17.75;;;;;;;1.37;60.15;100351.58;1704004;83;21057;-63
2022/01/16 10:53:32;;;;;;;40.95;14.18;;;;;;;1.37;60.44;100352.87;1717532;82;22157;-65
2022/01/16 10:56:04;;;;;;;47.33;16.70;;;;;;;1.42;60.01;100361.54;1738302;82;21488;-66
2022/01/16 10:58:39;;;;;;;137.82;52.23;;;;;;;1.48;60.10;100355.96;1728482;80;21057;-65
2022/01/16 11:01:15;;;;;;;20.10;6.85;;;;;;;1.52;61.63;100351.19;1709124;82;21065;-63
2022/01/16 11:03:49;;;;;;;7.97;2.95;;;;;;;1.55;59.47;100340.84;1725876;80;21156;-64
2022/01/16 11:06:18;;;;;;;6.58;2.40;;;;;;;1.46;58.51;100345.13;1712084;81;21022;-64
2022/01/16 11:09:03;;;;;;;6.10;3.02;;;;;;;1.46;58.51;100345.13;1727592;82;21045;-66
2022/01/16 11:11:25;;;;;;;6.55;2.90;;;;;;;1.42;58.52;100345.97;1725361;81;21067;-64
2022/01/16 11:13:55;;;;;;;9.35;2.52;;;;;;;1.42;58.46;100336.88;1732821;81;21597;-65
2022/01/16 11:16:23;;;;;;;8.15;2.60;;;;;;;1.41;58.54;100336.47;1718719;82;21053;-65
2022/01/16 11:18:51;;;;;;;11.28;3.45;;;;;;;1.43;58.83;100341.67;1734700;82;21081;-65
2022/01/16 11:21:31;;;;;;;14.95;4.37;;;;;;;1.45;59.13;100342.11;1725612;81;21558;-65
2022/01/16 11:26:40;;;;;;;11.68;3.83;;;;;;;1.50;58.62;100337.38;1722344;82;21077;-65
2022/01/16 11:29:06;;;;;;;8.33;2.60;;;;;;;1.50;58.80;100330.88;1709413;81;21121;-64
2022/01/16 11:31:33;;;;;;;6.78;2.52;;;;;;;1.49;58.70;100328.69;1724774;82;21584;-64
2022/01/16 11:34:00;;;;;;;10.80;4.33;;;;;;;1.49;58.97;100321.34;1732948;82;21061;-64
2022/01/16 11:36:28;;;;;;;8.53;2.10;;;;;;;1.49;58.68;100328.69;1726110;82;21085;-66
2022/01/16 11:39:03;;;;;;;6.60;2.15;;;;;;;1.49;58.61;100330.43;1729153;82;21541;-65
2022/01/16 11:41:42;;;;;;;8.48;2.42;;;;;;;1.50;58.72;100333.48;1708506;82;21073;-65
2022/01/16 11:44:10;;;;;;;6.85;2.10;;;;;;;1.44;57.67;100331.27;1727894;81;21041;-65
2022/01/16 11:46:41;;;;;;;4.80;1.90;;;;;;;1.44;57.39;100327.38;1734122;81;21136;-64
2022/01/16 11:49:13;;;;;;;5.80;1.72;;;;;;;1.40;56.36;100326.95;1716015;82;21600;-63
2022/01/16 11:51:49;;;;;;;5.33;1.70;;;;;;;1.35;56.99;100323.45;1735194;82;21019;-64
2022/01/16 11:54:32;;;;;;;6.60;1.80;;;;;;;1.36;56.27;100324.34;1730197;81;21194;-65
2022/01/16 11:57:08;;;;;;;4.62;1.95;;;;;;;1.34;56.09;100325.63;1725692;81;21062;-66
2022/01/16 11:59:40;;;;;;;5.42;2.30;;;;;;;1.35;56.48;100323.45;1728909;82;21612;-65
2022/01/16 12:02:16;;;;;;;7.83;1.87;;;;;;;1.34;56.70;100323.03;1732758;82;21080;-64
2022/01/16 12:04:47;;;;;;;5.05;1.87;;;;;;;1.28;56.96;100319.11;1712092;82;21073;-67
2022/01/16 12:07:20;;;;;;;;;;;;;;;1.28;56.96;100319.11;1726642;82;21974;-66
2022/01/16 12:12:22;;;;;;;4.30;1.80;;;;;;;1.12;57.08;100320.77;1718975;82;21088;-66
2022/01/16 12:15:11;;;;;;;4.10;1.40;;;;;;;1.10;57.44;100325.52;1725143;82;21101;-65